BIENTÔT MET'MAP
version 2.0 !

Prévue avant fin octobre,
la nouvelle version sera
plus belle, plus complète
et hébergée sur un serveur
3 fois plus puissant...
et toujours gratuite !


Pas compatible ?
Essayez la version Mobile !

SE CONNECTER : | S'inscrire | Disclaimer | Découvrir Orbifly |
Code OACI :

TAF - LTAI Antalya - 01 Jun 2020 22:21 UTC - Data Source NOAA   


- Altitude de l'aérodrome : 177 ft
- Code IATA : AYT
- Pas de NOTAMs connus.


LTAI - Antalya

Dernier METAR connu : 2015/08/11 07:50 LTAI 110750Z 17008KT 140V200 9999 SCT030 30/22 Q1008 NOSIG
TAF TAF LTAI
Valide du 01 à 18h jusqu'au 02 à 18h UTC


011640Z 0118/0218 34012KT 9999 BKN030
BECMG 0207/0210 18014KT SCT030
BECMG 0215/0218 VRB02KT

Source NOAA


MET'MAP, la Météo Aéronautique d'un coup d'oeil ! - Copyright ORBIFLY Décembre 2007

Développement & Programmation : Alexandra Zaïnal
Co-Développement : Marc-Olivier Méhu
Soutien technique & logistique : Manuel Goepfert
Conception & Financement : Baudouin d'Aumeries